sensor_id;sensor_type;location;lat;lon;timestamp;P1;durP1;ratioP1;P2;durP2;ratioP2
59006;SDS011;44792;52.760;6.726;2024-03-23T00:55:27;35.25;;;6.90;;
59006;SDS011;44792;52.760;6.726;2024-03-23T00:57:53;29.13;;;5.63;;
59006;SDS011;44792;52.760;6.726;2024-03-23T01:00:18;25.50;;;6.00;;
59006;SDS011;44792;52.760;6.726;2024-03-23T01:02:44;28.30;;;6.18;;
59006;SDS011;44792;52.760;6.726;2024-03-23T01:05:10;24.23;;;5.78;;
59006;SDS011;44792;52.760;6.726;2024-03-23T01:07:35;19.88;;;4.82;;
59006;SDS011;44792;52.760;6.726;2024-03-23T01:10:01;36.75;;;7.03;;
59006;SDS011;44792;52.760;6.726;2024-03-23T01:12:27;27.38;;;6.50;;
59006;SDS011;44792;52.760;6.726;2024-03-23T01:14:53;25.48;;;6.00;;
59006;SDS011;44792;52.760;6.726;2024-03-23T01:17:18;21.73;;;5.07;;
59006;SDS011;44792;52.760;6.726;2024-03-23T01:19:44;25.38;;;6.20;;
59006;SDS011;44792;52.760;6.726;2024-03-23T01:22:10;24.92;;;5.38;;
59006;SDS011;44792;52.760;6.726;2024-03-23T01:24:35;24.00;;;5.30;;
59006;SDS011;44792;52.760;6.726;2024-03-23T01:27:01;30.85;;;6.80;;
59006;SDS011;44792;52.760;6.726;2024-03-23T01:29:27;33.63;;;5.35;;
59006;SDS011;44792;52.760;6.726;2024-03-23T01:31:53;23.45;;;5.07;;
59006;SDS011;44792;52.760;6.726;2024-03-23T01:34:18;20.55;;;5.18;;
59006;SDS011;44792;52.760;6.726;2024-03-23T01:36:45;27.38;;;5.30;;
59006;SDS011;44792;52.760;6.726;2024-03-23T01:39:12;24.85;;;6.28;;
59006;SDS011;44792;52.760;6.726;2024-03-23T01:41:39;22.52;;;6.13;;
59006;SDS011;44792;52.760;6.726;2024-03-23T01:44:07;26.70;;;6.45;;
59006;SDS011;44792;52.760;6.726;2024-03-23T01:46:34;25.05;;;5.53;;
59006;SDS011;44792;52.760;6.726;2024-03-23T01:49:04;25.73;;;6.18;;
59006;SDS011;44792;52.760;6.726;2024-03-23T01:51:30;26.25;;;6.03;;
59006;SDS011;44792;52.760;6.726;2024-03-23T01:53:57;21.55;;;6.68;;
59006;SDS011;44792;52.760;6.726;2024-03-23T01:56:26;22.95;;;4.82;;
59006;SDS011;44792;52.760;6.726;2024-03-23T01:58:51;34.25;;;5.45;;
59006;SDS011;44792;52.760;6.726;2024-03-23T02:01:17;26.17;;;6.10;;
59006;SDS011;44792;52.760;6.726;2024-03-23T02:03:44;22.65;;;5.22;;
59006;SDS011;44792;52.760;6.726;2024-03-23T02:06:10;27.33;;;5.18;;
59006;SDS011;44792;52.760;6.726;2024-03-23T02:08:36;29.13;;;5.88;;
59006;SDS011;44792;52.760;6.726;2024-03-23T02:11:01;25.35;;;6.25;;
59006;SDS011;44792;52.760;6.726;2024-03-23T02:13:27;26.58;;;5.50;;
59006;SDS011;44792;52.760;6.726;2024-03-23T02:15:53;21.10;;;5.03;;
59006;SDS011;44792;52.760;6.726;2024-03-23T02:18:19;32.35;;;5.18;;
59006;SDS011;44792;52.760;6.726;2024-03-23T02:20:44;27.50;;;5.75;;
59006;SDS011;44792;52.760;6.726;2024-03-23T02:23:17;28.60;;;7.45;;
59006;SDS011;44792;52.760;6.726;2024-03-23T02:28:09;26.33;;;6.68;;
59006;SDS011;44792;52.760;6.726;2024-03-23T02:30:35;23.30;;;5.25;;
59006;SDS011;44792;52.760;6.726;2024-03-23T02:33:00;17.63;;;4.97;;
59006;SDS011;44792;52.760;6.726;2024-03-23T02:35:26;28.25;;;6.47;;
59006;SDS011;44792;52.760;6.726;2024-03-23T02:37:52;26.58;;;5.45;;
59006;SDS011;44792;52.760;6.726;2024-03-23T02:40:19;31.17;;;5.47;;
59006;SDS011;44792;52.760;6.726;2024-03-23T02:42:45;27.02;;;5.55;;
59006;SDS011;44792;52.760;6.726;2024-03-23T02:45:11;22.60;;;5.85;;
59006;SDS011;44792;52.760;6.726;2024-03-23T02:47:37;33.97;;;6.72;;
59006;SDS011;44792;52.760;6.726;2024-03-23T02:50:03;27.20;;;4.95;;
59006;SDS011;44792;52.760;6.726;2024-03-23T02:52:29;32.78;;;6.82;;
59006;SDS011;44792;52.760;6.726;2024-03-23T02:54:56;24.25;;;6.25;;
59006;SDS011;44792;52.760;6.726;2024-03-23T02:57:21;27.25;;;6.18;;
59006;SDS011;44792;52.760;6.726;2024-03-23T02:59:47;21.08;;;5.45;;
59006;SDS011;44792;52.760;6.726;2024-03-23T03:02:13;25.73;;;5.70;;
59006;SDS011;44792;52.760;6.726;2024-03-23T03:04:40;25.83;;;5.93;;
59006;SDS011;44792;52.760;6.726;2024-03-23T03:07:05;24.45;;;5.80;;
59006;SDS011;44792;52.760;6.726;2024-03-23T03:09:31;33.45;;;5.70;;
59006;SDS011;44792;52.760;6.726;2024-03-23T03:11:58;21.80;;;5.65;;
59006;SDS011;44792;52.760;6.726;2024-03-23T03:14:23;29.30;;;6.68;;
59006;SDS011;44792;52.760;6.726;2024-03-23T03:16:49;23.42;;;5.22;;
59006;SDS011;44792;52.760;6.726;2024-03-23T03:19:15;19.08;;;6.25;;
59006;SDS011;44792;52.760;6.726;2024-03-23T03:21:41;25.88;;;5.80;;
59006;SDS011;44792;52.760;6.726;2024-03-23T03:24:07;22.58;;;5.35;;
59006;SDS011;44792;52.760;6.726;2024-03-23T03:26:33;27.85;;;7.22;;
59006;SDS011;44792;52.760;6.726;2024-03-23T03:28:59;25.60;;;5.80;;
59006;SDS011;44792;52.760;6.726;2024-03-23T03:31:24;29.60;;;6.55;;
59006;SDS011;44792;52.760;6.726;2024-03-23T03:33:50;24.77;;;4.85;;
59006;SDS011;44792;52.760;6.726;2024-03-23T03:36:16;23.77;;;5.45;;
59006;SDS011;44792;52.760;6.726;2024-03-23T03:38:42;19.38;;;4.72;;
59006;SDS011;44792;52.760;6.726;2024-03-23T03:41:07;29.48;;;7.18;;
59006;SDS011;44792;52.760;6.726;2024-03-23T03:43:33;31.15;;;5.93;;
59006;SDS011;44792;52.760;6.726;2024-03-23T03:46:00;18.83;;;5.07;;
59006;SDS011;44792;52.760;6.726;2024-03-23T03:48:26;24.40;;;6.13;;
59006;SDS011;44792;52.760;6.726;2024-03-23T03:50:52;22.20;;;5.60;;
59006;SDS011;44792;52.760;6.726;2024-03-23T03:53:18;23.38;;;6.03;;
59006;SDS011;44792;52.760;6.726;2024-03-23T03:55:44;19.38;;;5.28;;
59006;SDS011;44792;52.760;6.726;2024-03-23T03:58:10;21.48;;;4.55;;
59006;SDS011;44792;52.760;6.726;2024-03-23T04:00:35;27.52;;;7.05;;
59006;SDS011;44792;52.760;6.726;2024-03-23T04:03:01;19.42;;;5.82;;
59006;SDS011;44792;52.760;6.726;2024-03-23T04:05:27;18.90;;;4.53;;
59006;SDS011;44792;52.760;6.726;2024-03-23T04:07:53;23.70;;;6.10;;
59006;SDS011;44792;52.760;6.726;2024-03-23T04:10:19;27.00;;;5.63;;
59006;SDS011;44792;52.760;6.726;2024-03-23T04:12:45;24.70;;;7.22;;
59006;SDS011;44792;52.760;6.726;2024-03-23T04:15:12;25.45;;;6.10;;
59006;SDS011;44792;52.760;6.726;2024-03-23T04:17:37;23.65;;;4.60;;
59006;SDS011;44792;52.760;6.726;2024-03-23T04:20:03;17.58;;;3.92;;
59006;SDS011;44792;52.760;6.726;2024-03-23T04:22:34;17.13;;;5.22;;
59006;SDS011;44792;52.760;6.726;2024-03-23T04:24:59;17.48;;;4.78;;
59006;SDS011;44792;52.760;6.726;2024-03-23T04:27:28;12.48;;;5.03;;
59006;SDS011;44792;52.760;6.726;2024-03-23T04:29:54;15.30;;;4.30;;
59006;SDS011;44792;52.760;6.726;2024-03-23T04:32:20;22.08;;;5.35;;
59006;SDS011;44792;52.760;6.726;2024-03-23T04:34:45;19.42;;;4.88;;
59006;SDS011;44792;52.760;6.726;2024-03-23T04:37:11;15.50;;;4.50;;
59006;SDS011;44792;52.760;6.726;2024-03-23T04:39:37;26.55;;;5.43;;
59006;SDS011;44792;52.760;6.726;2024-03-23T04:42:03;29.50;;;6.30;;
59006;SDS011;44792;52.760;6.726;2024-03-23T04:44:29;20.65;;;5.10;;
59006;SDS011;44792;52.760;6.726;2024-03-23T04:46:56;12.75;;;4.45;;
59006;SDS011;44792;52.760;6.726;2024-03-23T04:49:22;20.63;;;4.72;;
59006;SDS011;44792;52.760;6.726;2024-03-23T04:51:48;22.88;;;4.80;;
59006;SDS011;44792;52.760;6.726;2024-03-23T04:54:13;19.33;;;5.35;;
59006;SDS011;44792;52.760;6.726;2024-03-23T04:56:39;21.02;;;5.70;;
59006;SDS011;44792;52.760;6.726;2024-03-23T04:59:06;22.40;;;5.03;;
59006;SDS011;44792;52.760;6.726;2024-03-23T05:01:32;21.55;;;4.22;;
59006;SDS011;44792;52.760;6.726;2024-03-23T05:03:57;10.32;;;4.05;;
59006;SDS011;44792;52.760;6.726;2024-03-23T05:06:24;23.45;;;4.50;;
59006;SDS011;44792;52.760;6.726;2024-03-23T05:08:50;16.42;;;5.03;;
59006;SDS011;44792;52.760;6.726;2024-03-23T05:11:19;15.50;;;3.88;;
59006;SDS011;44792;52.760;6.726;2024-03-23T05:13:45;19.83;;;5.35;;
59006;SDS011;44792;52.760;6.726;2024-03-23T05:16:11;23.50;;;4.78;;
59006;SDS011;44792;52.760;6.726;2024-03-23T05:18:37;17.50;;;4.88;;
59006;SDS011;44792;52.760;6.726;2024-03-23T05:21:02;15.20;;;5.15;;
59006;SDS011;44792;52.760;6.726;2024-03-23T05:23:28;13.30;;;4.50;;
59006;SDS011;44792;52.760;6.726;2024-03-23T05:25:55;22.45;;;4.78;;
59006;SDS011;44792;52.760;6.726;2024-03-23T05:28:23;15.85;;;4.15;;
59006;SDS011;44792;52.760;6.726;2024-03-23T05:30:50;15.40;;;5.07;;
59006;SDS011;44792;52.760;6.726;2024-03-23T05:33:19;18.77;;;4.88;;
59006;SDS011;44792;52.760;6.726;2024-03-23T05:35:45;21.13;;;4.10;;
59006;SDS011;44792;52.760;6.726;2024-03-23T05:38:12;22.80;;;5.90;;
59006;SDS011;44792;52.760;6.726;2024-03-23T05:40:39;20.45;;;3.83;;
59006;SDS011;44792;52.760;6.726;2024-03-23T05:43:08;14.68;;;4.07;;
59006;SDS011;44792;52.760;6.726;2024-03-23T05:45:34;18.58;;;4.10;;
59006;SDS011;44792;52.760;6.726;2024-03-23T05:48:00;16.70;;;4.68;;
59006;SDS011;44792;52.760;6.726;2024-03-23T05:50:25;16.60;;;4.68;;
59006;SDS011;44792;52.760;6.726;2024-03-23T05:52:51;15.77;;;6.07;;
59006;SDS011;44792;52.760;6.726;2024-03-23T05:55:17;16.90;;;4.60;;
59006;SDS011;44792;52.760;6.726;2024-03-23T05:57:43;19.75;;;4.22;;
59006;SDS011;44792;52.760;6.726;2024-03-23T06:00:09;16.15;;;4.22;;
59006;SDS011;44792;52.760;6.726;2024-03-23T06:02:44;13.88;;;3.90;;
59006;SDS011;44792;52.760;6.726;2024-03-23T06:05:12;22.13;;;4.40;;
59006;SDS011;44792;52.760;6.726;2024-03-23T06:07:38;21.45;;;5.35;;
59006;SDS011;44792;52.760;6.726;2024-03-23T06:10:07;15.80;;;4.20;;
59006;SDS011;44792;52.760;6.726;2024-03-23T06:12:33;13.82;;;4.28;;
59006;SDS011;44792;52.760;6.726;2024-03-23T06:14:58;17.52;;;4.80;;
59006;SDS011;44792;52.760;6.726;2024-03-23T06:17:24;18.00;;;4.55;;
59006;SDS011;44792;52.760;6.726;2024-03-23T06:19:50;9.40;;;4.28;;
59006;SDS011;44792;52.760;6.726;2024-03-23T06:22:16;18.92;;;5.05;;
59006;SDS011;44792;52.760;6.726;2024-03-23T06:24:41;25.73;;;4.78;;
59006;SDS011;44792;52.760;6.726;2024-03-23T06:27:07;17.05;;;4.93;;
59006;SDS011;44792;52.760;6.726;2024-03-23T06:29:33;19.35;;;5.25;;
59006;SDS011;44792;52.760;6.726;2024-03-23T06:31:58;15.95;;;4.45;;
59006;SDS011;44792;52.760;6.726;2024-03-23T06:34:24;12.98;;;4.53;;
59006;SDS011;44792;52.760;6.726;2024-03-23T06:36:50;24.98;;;4.22;;
59006;SDS011;44792;52.760;6.726;2024-03-23T06:39:16;14.00;;;3.38;;
59006;SDS011;44792;52.760;6.726;2024-03-23T06:41:42;17.40;;;3.30;;
59006;SDS011;44792;52.760;6.726;2024-03-23T06:44:08;12.52;;;3.20;;
59006;SDS011;44792;52.760;6.726;2024-03-23T06:46:34;14.15;;;3.28;;
59006;SDS011;44792;52.760;6.726;2024-03-23T06:48:59;7.10;;;3.45;;
59006;SDS011;44792;52.760;6.726;2024-03-23T06:51:25;9.35;;;2.35;;
59006;SDS011;44792;52.760;6.726;2024-03-23T06:53:51;7.22;;;2.72;;
59006;SDS011;44792;52.760;6.726;2024-03-23T06:56:16;4.90;;;2.10;;
59006;SDS011;44792;52.760;6.726;2024-03-23T06:58:42;6.25;;;2.17;;
59006;SDS011;44792;52.760;6.726;2024-03-23T07:01:08;7.90;;;2.40;;
59006;SDS011;44792;52.760;6.726;2024-03-23T07:03:33;7.22;;;2.80;;
59006;SDS011;44792;52.760;6.726;2024-03-23T07:05:59;11.82;;;2.80;;
59006;SDS011;44792;52.760;6.726;2024-03-23T07:08:24;9.15;;;2.72;;
59006;SDS011;44792;52.760;6.726;2024-03-23T07:10:50;7.18;;;2.42;;
59006;SDS011;44792;52.760;6.726;2024-03-23T07:13:16;6.50;;;2.55;;
59006;SDS011;44792;52.760;6.726;2024-03-23T07:15:42;4.93;;;2.58;;
59006;SDS011;44792;52.760;6.726;2024-03-23T07:18:08;8.40;;;2.50;;
59006;SDS011;44792;52.760;6.726;2024-03-23T07:20:34;7.05;;;2.53;;
59006;SDS011;44792;52.760;6.726;2024-03-23T07:22:59;7.93;;;2.58;;
59006;SDS011;44792;52.760;6.726;2024-03-23T07:25:25;6.05;;;2.53;;
59006;SDS011;44792;52.760;6.726;2024-03-23T07:27:54;7.50;;;2.20;;
59006;SDS011;44792;52.760;6.726;2024-03-23T07:30:20;8.20;;;2.45;;
59006;SDS011;44792;52.760;6.726;2024-03-23T07:32:49;8.20;;;2.45;;
59006;SDS011;44792;52.760;6.726;2024-03-23T07:35:14;7.63;;;2.50;;
59006;SDS011;44792;52.760;6.726;2024-03-23T07:37:40;12.88;;;3.30;;
59006;SDS011;44792;52.760;6.726;2024-03-23T07:40:07;13.73;;;3.15;;
59006;SDS011;44792;52.760;6.726;2024-03-23T07:42:33;12.63;;;2.85;;
59006;SDS011;44792;52.760;6.726;2024-03-23T07:44:58;15.13;;;3.00;;
59006;SDS011;44792;52.760;6.726;2024-03-23T07:47:24;14.52;;;3.95;;
59006;SDS011;44792;52.760;6.726;2024-03-23T07:49:50;15.70;;;3.78;;
59006;SDS011;44792;52.760;6.726;2024-03-23T07:52:15;14.85;;;3.75;;
59006;SDS011;44792;52.760;6.726;2024-03-23T07:54:41;14.30;;;4.13;;
59006;SDS011;44792;52.760;6.726;2024-03-23T07:57:07;9.43;;;3.10;;
59006;SDS011;44792;52.760;6.726;2024-03-23T07:59:33;13.15;;;3.15;;
59006;SDS011;44792;52.760;6.726;2024-03-23T08:01:59;4.78;;;2.60;;
59006;SDS011;44792;52.760;6.726;2024-03-23T08:04:25;11.20;;;3.15;;
59006;SDS011;44792;52.760;6.726;2024-03-23T08:06:52;6.93;;;3.20;;
59006;SDS011;44792;52.760;6.726;2024-03-23T08:09:17;9.40;;;3.03;;
59006;SDS011;44792;52.760;6.726;2024-03-23T08:11:43;9.35;;;3.00;;
59006;SDS011;44792;52.760;6.726;2024-03-23T08:14:11;15.57;;;3.13;;
59006;SDS011;44792;52.760;6.726;2024-03-23T08:16:37;10.65;;;2.97;;
59006;SDS011;44792;52.760;6.726;2024-03-23T08:19:03;13.35;;;3.25;;
59006;SDS011;44792;52.760;6.726;2024-03-23T08:21:28;12.73;;;2.50;;
59006;SDS011;44792;52.760;6.726;2024-03-23T08:23:54;11.15;;;2.60;;
59006;SDS011;44792;52.760;6.726;2024-03-23T08:26:20;6.18;;;2.15;;
59006;SDS011;44792;52.760;6.726;2024-03-23T08:28:46;12.07;;;4.20;;
59006;SDS011;44792;52.760;6.726;2024-03-23T08:31:13;6.93;;;2.35;;
59006;SDS011;44792;52.760;6.726;2024-03-23T08:33:39;5.90;;;2.33;;
59006;SDS011;44792;52.760;6.726;2024-03-23T08:36:08;4.78;;;2.05;;
59006;SDS011;44792;52.760;6.726;2024-03-23T08:38:35;4.95;;;2.00;;
59006;SDS011;44792;52.760;6.726;2024-03-23T08:41:05;5.57;;;2.20;;
59006;SDS011;44792;52.760;6.726;2024-03-23T08:43:38;5.70;;;1.98;;
59006;SDS011;44792;52.760;6.726;2024-03-23T08:46:11;6.93;;;2.17;;
59006;SDS011;44792;52.760;6.726;2024-03-23T08:48:38;4.10;;;1.58;;
59006;SDS011;44792;52.760;6.726;2024-03-23T08:51:04;8.45;;;3.20;;
59006;SDS011;44792;52.760;6.726;2024-03-23T08:53:31;4.93;;;2.13;;
59006;SDS011;44792;52.760;6.726;2024-03-23T08:55:58;3.92;;;1.90;;
59006;SDS011;44792;52.760;6.726;2024-03-23T08:58:24;5.40;;;1.60;;
59006;SDS011;44792;52.760;6.726;2024-03-23T09:00:51;4.70;;;1.33;;
59006;SDS011;44792;52.760;6.726;2024-03-23T09:03:18;6.20;;;2.15;;
59006;SDS011;44792;52.760;6.726;2024-03-23T09:05:43;6.10;;;1.65;;
59006;SDS011;44792;52.760;6.726;2024-03-23T09:08:09;5.93;;;1.63;;
59006;SDS011;44792;52.760;6.726;2024-03-23T09:10:39;4.72;;;1.67;;
59006;SDS011;44792;52.760;6.726;2024-03-23T09:13:05;4.57;;;2.25;;
59006;SDS011;44792;52.760;6.726;2024-03-23T09:15:52;13.68;;;2.75;;
59006;SDS011;44792;52.760;6.726;2024-03-23T09:18:21;9.20;;;2.50;;
59006;SDS011;44792;52.760;6.726;2024-03-23T09:20:47;5.65;;;2.03;;
59006;SDS011;44792;52.760;6.726;2024-03-23T09:23:12;5.93;;;2.13;;
59006;SDS011;44792;52.760;6.726;2024-03-23T09:25:39;6.53;;;2.13;;
59006;SDS011;44792;52.760;6.726;2024-03-23T09:28:05;9.25;;;2.22;;
59006;SDS011;44792;52.760;6.726;2024-03-23T09:30:35;8.18;;;2.72;;
59006;SDS011;44792;52.760;6.726;2024-03-23T09:33:07;5.97;;;1.90;;
59006;SDS011;44792;52.760;6.726;2024-03-23T09:35:36;7.55;;;1.85;;
59006;SDS011;44792;52.760;6.726;2024-03-23T09:38:02;7.93;;;2.00;;
59006;SDS011;44792;52.760;6.726;2024-03-23T09:40:28;6.90;;;2.03;;
59006;SDS011;44792;52.760;6.726;2024-03-23T09:42:53;9.63;;;2.45;;
59006;SDS011;44792;52.760;6.726;2024-03-23T09:45:21;8.27;;;2.00;;
59006;SDS011;44792;52.760;6.726;2024-03-23T09:47:51;21.45;;;3.58;;
59006;SDS011;44792;52.760;6.726;2024-03-23T09:50:18;11.07;;;2.40;;
59006;SDS011;44792;52.760;6.726;2024-03-23T09:52:45;7.72;;;1.80;;
59006;SDS011;44792;52.760;6.726;2024-03-23T09:55:11;10.00;;;2.10;;
59006;SDS011;44792;52.760;6.726;2024-03-23T09:57:37;6.85;;;2.38;;
59006;SDS011;44792;52.760;6.726;2024-03-23T10:00:03;8.07;;;2.03;;
59006;SDS011;44792;52.760;6.726;2024-03-23T10:02:29;8.68;;;2.25;;
59006;SDS011;44792;52.760;6.726;2024-03-23T10:04:55;13.73;;;2.92;;
59006;SDS011;44792;52.760;6.726;2024-03-23T10:07:22;8.38;;;2.45;;
59006;SDS011;44792;52.760;6.726;2024-03-23T10:09:48;7.70;;;2.38;;
59006;SDS011;44792;52.760;6.726;2024-03-23T10:12:16;15.18;;;1.95;;
59006;SDS011;44792;52.760;6.726;2024-03-23T10:14:43;9.65;;;1.90;;
59006;SDS011;44792;52.760;6.726;2024-03-23T10:17:19;11.73;;;1.85;;
59006;SDS011;44792;52.760;6.726;2024-03-23T10:19:49;11.63;;;1.95;;
59006;SDS011;44792;52.760;6.726;2024-03-23T10:22:20;8.23;;;1.90;;
59006;SDS011;44792;52.760;6.726;2024-03-23T10:24:47;3.85;;;1.23;;
59006;SDS011;44792;52.760;6.726;2024-03-23T10:27:20;1.92;;;1.15;;
59006;SDS011;44792;52.760;6.726;2024-03-23T10:29:49;5.38;;;1.40;;
59006;SDS011;44792;52.760;6.726;2024-03-23T10:32:17;3.92;;;1.38;;
59006;SDS011;44792;52.760;6.726;2024-03-23T10:34:43;4.85;;;1.40;;
59006;SDS011;44792;52.760;6.726;2024-03-23T10:37:09;2.72;;;1.30;;
59006;SDS011;44792;52.760;6.726;2024-03-23T10:39:39;6.80;;;1.60;;
59006;SDS011;44792;52.760;6.726;2024-03-23T10:42:06;5.53;;;1.67;;
59006;SDS011;44792;52.760;6.726;2024-03-23T10:44:33;6.65;;;1.90;;
59006;SDS011;44792;52.760;6.726;2024-03-23T10:46:59;8.52;;;1.90;;
59006;SDS011;44792;52.760;6.726;2024-03-23T10:49:29;11.50;;;2.47;;
59006;SDS011;44792;52.760;6.726;2024-03-23T10:51:59;12.80;;;2.25;;
59006;SDS011;44792;52.760;6.726;2024-03-23T10:54:26;9.05;;;1.90;;
59006;SDS011;44792;52.760;6.726;2024-03-23T10:56:56;12.73;;;2.97;;
59006;SDS011;44792;52.760;6.726;2024-03-23T10:59:29;11.30;;;3.13;;
59006;SDS011;44792;52.760;6.726;2024-03-23T11:01:59;6.82;;;1.98;;
59006;SDS011;44792;52.760;6.726;2024-03-23T11:04:36;23.83;;;3.40;;
59006;SDS011;44792;52.760;6.726;2024-03-23T11:09:51;7.70;;;2.17;;
59006;SDS011;44792;52.760;6.726;2024-03-23T11:17:18;23.45;;;3.05;;
59006;SDS011;44792;52.760;6.726;2024-03-23T11:19:44;41.05;;;6.00;;
59006;SDS011;44792;52.760;6.726;2024-03-23T11:25:03;7.32;;;2.05;;
59006;SDS011;44792;52.760;6.726;2024-03-23T11:27:37;7.90;;;1.95;;
59006;SDS011;44792;52.760;6.726;2024-03-23T11:32:47;6.28;;;2.25;;
59006;SDS011;44792;52.760;6.726;2024-03-23T11:40:34;11.50;;;2.70;;
59006;SDS011;44792;52.760;6.726;2024-03-23T11:43:02;7.22;;;1.80;;
59006;SDS011;44792;52.760;6.726;2024-03-23T11:45:31;5.32;;;1.90;;
59006;SDS011;44792;52.760;6.726;2024-03-23T11:48:07;10.50;;;2.20;;
59006;SDS011;44792;52.760;6.726;2024-03-23T11:55:56;8.30;;;2.45;;
59006;SDS011;44792;52.760;6.726;2024-03-23T11:58:24;7.45;;;2.17;;
59006;SDS011;44792;52.760;6.726;2024-03-23T12:03:29;9.38;;;2.40;;
59006;SDS011;44792;52.760;6.726;2024-03-23T12:06:00;4.55;;;2.03;;
59006;SDS011;44792;52.760;6.726;2024-03-23T12:08:30;14.80;;;2.17;;
59006;SDS011;44792;52.760;6.726;2024-03-23T12:13:51;8.93;;;2.05;;
59006;SDS011;44792;52.760;6.726;2024-03-23T12:16:20;7.40;;;2.13;;
59006;SDS011;44792;52.760;6.726;2024-03-23T12:18:47;7.50;;;1.95;;
59006;SDS011;44792;52.760;6.726;2024-03-23T12:21:17;8.32;;;1.90;;
59006;SDS011;44792;52.760;6.726;2024-03-23T12:23:43;4.93;;;2.00;;
59006;SDS011;44792;52.760;6.726;2024-03-23T12:26:10;7.82;;;1.73;;
59006;SDS011;44792;52.760;6.726;2024-03-23T12:28:37;9.20;;;1.85;;
59006;SDS011;44792;52.760;6.726;2024-03-23T12:31:03;7.55;;;2.03;;
59006;SDS011;44792;52.760;6.726;2024-03-23T12:33:29;4.03;;;1.85;;
59006;SDS011;44792;52.760;6.726;2024-03-23T12:35:55;9.98;;;1.95;;
59006;SDS011;44792;52.760;6.726;2024-03-23T12:38:21;8.82;;;1.88;;
59006;SDS011;44792;52.760;6.726;2024-03-23T12:40:47;6.60;;;2.28;;
59006;SDS011;44792;52.760;6.726;2024-03-23T12:43:13;8.10;;;2.10;;
59006;SDS011;44792;52.760;6.726;2024-03-23T12:45:39;6.68;;;2.20;;
59006;SDS011;44792;52.760;6.726;2024-03-23T12:48:06;7.70;;;2.00;;
59006;SDS011;44792;52.760;6.726;2024-03-23T12:50:32;11.95;;;2.60;;
59006;SDS011;44792;52.760;6.726;2024-03-23T12:52:58;7.30;;;2.35;;
59006;SDS011;44792;52.760;6.726;2024-03-23T12:55:23;5.90;;;2.35;;
59006;SDS011;44792;52.760;6.726;2024-03-23T12:57:49;9.27;;;2.47;;
59006;SDS011;44792;52.760;6.726;2024-03-23T13:00:15;16.60;;;2.28;;
59006;SDS011;44792;52.760;6.726;2024-03-23T13:02:42;9.75;;;1.90;;
59006;SDS011;44792;52.760;6.726;2024-03-23T13:05:08;8.55;;;2.35;;
59006;SDS011;44792;52.760;6.726;2024-03-23T13:07:34;15.85;;;2.10;;
59006;SDS011;44792;52.760;6.726;2024-03-23T13:10:00;4.93;;;2.17;;
59006;SDS011;44792;52.760;6.726;2024-03-23T13:12:27;6.43;;;1.48;;
59006;SDS011;44792;52.760;6.726;2024-03-23T13:14:52;14.77;;;2.83;;
59006;SDS011;44792;52.760;6.726;2024-03-23T13:17:18;10.52;;;2.20;;
59006;SDS011;44792;52.760;6.726;2024-03-23T13:19:44;8.38;;;2.03;;
59006;SDS011;44792;52.760;6.726;2024-03-23T13:22:09;8.65;;;2.63;;
59006;SDS011;44792;52.760;6.726;2024-03-23T13:24:36;3.38;;;1.63;;
59006;SDS011;44792;52.760;6.726;2024-03-23T13:27:03;6.47;;;1.90;;
59006;SDS011;44792;52.760;6.726;2024-03-23T13:29:33;11.30;;;2.25;;
59006;SDS011;44792;52.760;6.726;2024-03-23T13:32:05;4.80;;;1.50;;
59006;SDS011;44792;52.760;6.726;2024-03-23T13:34:31;8.32;;;2.70;;
59006;SDS011;44792;52.760;6.726;2024-03-23T13:36:58;6.80;;;1.55;;
59006;SDS011;44792;52.760;6.726;2024-03-23T13:39:24;5.72;;;1.75;;
59006;SDS011;44792;52.760;6.726;2024-03-23T13:41:51;12.38;;;1.95;;
59006;SDS011;44792;52.760;6.726;2024-03-23T13:44:16;5.35;;;2.13;;
59006;SDS011;44792;52.760;6.726;2024-03-23T13:46:43;9.00;;;2.08;;
59006;SDS011;44792;52.760;6.726;2024-03-23T13:51:57;10.02;;;2.28;;
59006;SDS011;44792;52.760;6.726;2024-03-23T13:54:23;10.57;;;2.40;;
59006;SDS011;44792;52.760;6.726;2024-03-23T13:56:53;9.93;;;2.20;;
59006;SDS011;44792;52.760;6.726;2024-03-23T13:59:19;7.57;;;2.22;;
59006;SDS011;44792;52.760;6.726;2024-03-23T14:01:48;12.93;;;3.70;;
59006;SDS011;44792;52.760;6.726;2024-03-23T14:04:14;10.70;;;2.70;;
59006;SDS011;44792;52.760;6.726;2024-03-23T14:06:41;6.47;;;2.20;;
59006;SDS011;44792;52.760;6.726;2024-03-23T14:09:10;5.25;;;1.90;;
59006;SDS011;44792;52.760;6.726;2024-03-23T14:11:36;5.97;;;2.35;;
59006;SDS011;44792;52.760;6.726;2024-03-23T14:14:02;5.93;;;1.73;;
59006;SDS011;44792;52.760;6.726;2024-03-23T14:16:31;6.63;;;1.67;;
59006;SDS011;44792;52.760;6.726;2024-03-23T14:18:58;10.40;;;2.35;;
59006;SDS011;44792;52.760;6.726;2024-03-23T14:21:24;6.03;;;1.90;;
59006;SDS011;44792;52.760;6.726;2024-03-23T14:23:50;7.78;;;2.03;;
59006;SDS011;44792;52.760;6.726;2024-03-23T14:26:15;12.10;;;2.47;;
59006;SDS011;44792;52.760;6.726;2024-03-23T14:28:41;7.07;;;2.10;;
59006;SDS011;44792;52.760;6.726;2024-03-23T14:31:07;8.55;;;2.38;;
59006;SDS011;44792;52.760;6.726;2024-03-23T14:33:38;8.63;;;2.22;;
59006;SDS011;44792;52.760;6.726;2024-03-23T14:36:10;8.27;;;2.20;;
59006;SDS011;44792;52.760;6.726;2024-03-23T14:38:36;6.18;;;2.10;;
59006;SDS011;44792;52.760;6.726;2024-03-23T14:41:02;9.82;;;2.60;;
59006;SDS011;44792;52.760;6.726;2024-03-23T14:43:28;9.68;;;2.00;;
59006;SDS011;44792;52.760;6.726;2024-03-23T14:46:28;9.68;;;2.95;;
59006;SDS011;44792;52.760;6.726;2024-03-23T14:48:47;5.93;;;1.77;;
59006;SDS011;44792;52.760;6.726;2024-03-23T14:51:13;8.82;;;2.13;;
59006;SDS011;44792;52.760;6.726;2024-03-23T14:53:39;8.77;;;2.17;;
59006;SDS011;44792;52.760;6.726;2024-03-23T14:56:06;6.18;;;1.75;;
59006;SDS011;44792;52.760;6.726;2024-03-23T14:58:33;4.85;;;2.03;;
59006;SDS011;44792;52.760;6.726;2024-03-23T15:01:05;11.10;;;2.55;;
59006;SDS011;44792;52.760;6.726;2024-03-23T15:03:35;3.92;;;1.88;;
59006;SDS011;44792;52.760;6.726;2024-03-23T15:06:01;6.68;;;1.98;;
59006;SDS011;44792;52.760;6.726;2024-03-23T15:08:27;6.75;;;2.17;;
59006;SDS011;44792;52.760;6.726;2024-03-23T15:10:54;10.50;;;2.08;;
59006;SDS011;44792;52.760;6.726;2024-03-23T15:13:20;5.20;;;1.90;;
59006;SDS011;44792;52.760;6.726;2024-03-23T15:15:48;6.53;;;1.85;;
59006;SDS011;44792;52.760;6.726;2024-03-23T15:18:14;6.78;;;2.45;;
59006;SDS011;44792;52.760;6.726;2024-03-23T15:20:53;6.60;;;2.28;;
59006;SDS011;44792;52.760;6.726;2024-03-23T15:23:20;9.15;;;2.10;;
59006;SDS011;44792;52.760;6.726;2024-03-23T15:25:53;13.98;;;2.35;;
59006;SDS011;44792;52.760;6.726;2024-03-23T15:28:23;7.10;;;2.42;;
59006;SDS011;44792;52.760;6.726;2024-03-23T15:30:51;6.72;;;1.95;;
59006;SDS011;44792;52.760;6.726;2024-03-23T15:33:17;10.90;;;3.17;;
59006;SDS011;44792;52.760;6.726;2024-03-23T15:35:43;8.13;;;2.35;;
59006;SDS011;44792;52.760;6.726;2024-03-23T15:38:08;10.02;;;2.72;;
59006;SDS011;44792;52.760;6.726;2024-03-23T15:40:35;8.05;;;2.88;;
59006;SDS011;44792;52.760;6.726;2024-03-23T15:43:00;11.88;;;3.25;;
59006;SDS011;44792;52.760;6.726;2024-03-23T15:45:26;8.65;;;2.50;;
59006;SDS011;44792;52.760;6.726;2024-03-23T15:47:52;10.90;;;2.60;;
59006;SDS011;44792;52.760;6.726;2024-03-23T15:50:17;14.50;;;2.33;;
59006;SDS011;44792;52.760;6.726;2024-03-23T15:52:44;8.70;;;2.40;;
59006;SDS011;44792;52.760;6.726;2024-03-23T15:55:10;8.20;;;2.75;;
59006;SDS011;44792;52.760;6.726;2024-03-23T15:57:37;5.75;;;1.67;;
59006;SDS011;44792;52.760;6.726;2024-03-23T16:00:03;10.65;;;1.90;;
59006;SDS011;44792;52.760;6.726;2024-03-23T16:02:29;10.65;;;1.85;;
59006;SDS011;44792;52.760;6.726;2024-03-23T16:04:55;7.25;;;1.77;;
59006;SDS011;44792;52.760;6.726;2024-03-23T16:07:23;6.00;;;1.73;;